Date,TemperatureHighF,TemperatureAvgF,TemperatureLowF,DewpointHighF,DewpointAvgF,DewpointLowF,HumidityHigh,HumidityAvg,HumidityLow,PressureMaxIn,PressureMinIn,WindSpeedMaxMPH,WindSpeedAvgMPH,GustSpeedMaxMPH,PrecipitationSumIn
2013-3-1,65,61,57,57,51,47,88,71,59,29.93,29.84,8,1,8,0.00
2013-3-2,66,57,47,50,43,36,88,60,43,29.98,29.90,14,3,14,0.00
2013-3-3,61,53,47,44,42,37,88,66,48,30.09,29.91,15,2,15,0.00
2013-3-4,68,52,38,44,37,30,91,60,26,30.16,30.06,12,2,12,0.00
2013-3-5,75,61,45,60,52,43,97,76,53,30.13,30.02,11,1,11,0.00
2013-3-6,77,64,52,65,52,34,96,69,29,30.04,29.89,12,2,12,0.00
2013-3-7,71,58,46,55,45,35,94,65,40,30.13,30.02,10,2,10,0.00
2013-3-8,76,61,48,55,50,42,97,72,32,30.15,30.04,8,1,8,0.00
2013-3-9,76,63,50,59,53,48,97,73,53,30.14,30.04,12,1,12,0.00
2013-3-10,75,69,62,61,57,53,75,65,53,30.11,30.01,13,2,13,0.00
2013-3-11,78,71,67,63,60,58,81,70,53,30.06,29.90,14,3,14,0.00
2013-3-12,81,74,66,70,66,62,89,76,64,29.94,29.85,13,2,13,0.00
2013-3-13,70,61,56,66,58,53,92,87,76,30.04,29.92,8,2,8,0.00
2013-3-14,71,61,52,52,47,41,92,62,34,30.15,30.03,13,2,13,0.00
2013-3-15,73,61,49,54,50,44,89,67,40,30.19,30.09,12,1,12,0.00
2013-3-16,75,63,49,56,53,48,95,73,46,30.13,30.02,13,1,13,0.00
2013-3-17,75,64,54,62,58,52,97,80,60,30.10,29.97,13,1,13,0.00
2013-3-18,80,70,61,70,65,58,97,85,66,30.02,29.90,14,2,14,0.58
2013-3-19,79,71,65,69,67,63,96,86,67,29.95,29.77,12,1,12,0.00
2013-3-20,84,71,61,70,64,59,98,79,55,29.92,29.74,9,1,10,0.01
2013-3-21,76,65,53,62,54,47,93,70,37,29.89,29.76,8,2,8,0.00
2013-3-22,75,65,50,69,58,49,98,81,60,29.95,29.84,14,2,14,0.00
2013-3-23,84,73,69,75,70,68,97,91,67,29.93,29.85,10,0,10,0.01
2013-3-24,89,80,71,74,71,66,96,74,56,29.83,29.61,16,3,20,0.72
2013-3-25,78,72,63,72,60,38,97,69,33,29.93,29.68,11,2,11,0.01
2013-3-26,67,60,51,43,38,31,61,46,29,30.15,29.92,13,4,13,0.00
2013-3-27,69,56,45,48,41,33,87,58,32,30.19,30.11,8,2,10,0.00
2013-3-28,72,59,46,54,45,36,89,64,32,30.21,30.10,9,1,9,0.00
2013-3-29,75,61,49,55,50,43,92,69,45,30.23,30.14,9,1,10,0.00
2013-3-30,75,63,51,59,52,49,97,70,43,30.20,30.10,12,1,12,0.00
2013-3-31,79,69,55,66,61,53,97,77,58,30.13,29.98,13,2,13,0.00